Time;durP1;ratioP1;P1;durP2;ratioP2;P2;SDS_P1;SDS_P2;PMS_P1;PMS_P2;Temp;Humidity;BMP_temperature;BMP_pressure;BME280_temperature;BME280_humidity;BME280_pressure;Samples;Min_cycle;Max_cycle;Signal;HPM_P1;HPM_P2
2022/06/04 00:00:32;;;;;;;;;26.33;25.00;;;;;20.46;100.00;101197.31;4957741;28;45266;-70
2022/06/04 00:02:57;;;;;;;;;25.75;21.50;;;;;20.45;100.00;101200.84;4958397;28;46512;-70
2022/06/04 00:05:29;;;;;;;;;26.00;25.25;;;;;20.43;100.00;101200.00;4968189;28;45279;-70
2022/06/04 00:07:56;;;;;;;;;32.50;26.25;;;;;20.42;100.00;101204.50;4940008;28;45363;-70
2022/06/04 00:16:21;;;;;;;;;27.00;25.75;;;;;20.36;100.00;101198.41;4957333;28;45331;-70
2022/06/04 00:18:48;;;;;;;;;23.50;22.00;;;;;20.34;100.00;101197.53;4957889;28;45245;-70
2022/06/04 00:21:14;;;;;;;;;30.25;26.75;;;;;20.34;100.00;101200.22;4957719;28;45251;-71
2022/06/04 00:23:40;;;;;;;;;24.00;22.75;;;;;20.33;100.00;101198.47;4957470;28;46083;-70
2022/06/04 00:26:07;;;;;;;;;24.00;24.00;;;;;20.32;100.00;101194.03;4957137;28;45522;-70
2022/06/04 00:28:33;;;;;;;;;26.25;25.50;;;;;20.31;100.00;101194.94;4966216;28;45486;-70
2022/06/04 00:30:58;;;;;;;;;27.50;26.00;;;;;20.28;100.00;101193.19;4959472;28;45317;-70
2022/06/04 00:33:25;;;;;;;;;27.75;23.00;;;;;20.29;100.00;101204.81;4943230;28;46448;-71
2022/06/04 00:35:52;;;;;;;;;26.50;25.00;;;;;20.25;100.00;101212.06;4970391;28;45167;-71
2022/06/04 00:38:20;;;;;;;;;27.33;26.33;;;;;20.25;100.00;101217.44;4972456;28;45302;-70
2022/06/04 00:41:06;;;;;;;;;22.67;22.67;;;;;20.24;100.00;101209.41;4969580;28;45379;-70
2022/06/04 00:43:32;;;;;;;;;27.67;26.00;;;;;20.22;100.00;101201.41;4961302;28;46134;-70
2022/06/04 00:46:36;;;;;;;;;25.75;22.75;;;;;20.23;100.00;101184.38;4960372;28;45275;-70
2022/06/04 00:49:02;;;;;;;;;25.50;23.00;;;;;20.22;100.00;101179.06;4960504;28;45320;-70
2022/06/04 00:51:27;;;;;;;;;30.25;26.75;;;;;20.21;100.00;101172.81;4960141;28;46972;-70
2022/06/04 00:53:55;;;;;;;;;29.50;25.50;;;;;20.20;100.00;101168.38;4960279;28;45250;-70
2022/06/04 00:56:32;;;;;;;;;24.25;23.50;;;;;20.18;100.00;101167.53;4971386;28;45459;-70
2022/06/04 00:59:01;;;;;;;;;28.75;25.25;;;;;20.16;100.00;101161.31;4960245;28;45497;-71
2022/06/04 01:01:31;;;;;;;;;26.50;25.50;;;;;20.14;100.00;101149.75;4960125;28;45347;-70
2022/06/04 01:04:11;;;;;;;;;25.75;25.75;;;;;20.12;100.00;101163.19;4960065;28;46370;-70
2022/06/04 01:06:47;;;;;;;;;30.75;24.50;;;;;20.11;100.00;101160.53;4958803;28;45446;-70
2022/06/04 01:09:38;;;;;;;;;26.00;24.00;;;;;20.10;100.00;101158.78;4964113;28;45561;-71
2022/06/04 01:12:20;;;;;;;;;25.50;24.50;;;;;20.08;100.00;101160.59;4947799;28;45581;-71
2022/06/04 01:14:55;;;;;;;;;29.50;24.75;;;;;20.07;100.00;101157.03;4960082;28;45455;-70
2022/06/04 01:17:34;;;;;;;;;24.75;24.25;;;;;20.05;100.00;101147.28;4960024;28;45443;-71
2022/06/04 01:20:18;;;;;;;;;27.50;26.00;;;;;20.04;100.00;101150.91;4960113;28;45319;-71
2022/06/04 01:23:08;;;;;;;;;26.50;25.50;;;;;20.02;100.00;101150.91;4968422;28;45595;-71
2022/06/04 01:25:42;;;;;;;;;27.50;25.50;;;;;20.01;100.00;101153.63;4960279;28;45585;-70
2022/06/04 01:28:10;;;;;;;;;23.50;23.50;;;;;20.00;100.00;101146.50;4972615;28;45414;-71
2022/06/04 01:30:40;;;;;;;;;27.75;25.75;;;;;19.97;100.00;101138.53;4942482;28;45538;-70
2022/06/04 01:33:10;;;;;;;;;27.75;24.75;;;;;19.97;100.00;101133.16;4962656;28;45640;-71
2022/06/04 01:35:44;;;;;;;;;29.00;27.33;;;;;19.96;100.00;101131.41;4959428;28;47354;-70
2022/06/04 01:38:20;;;;;;;;;30.33;29.33;;;;;19.94;100.00;101125.22;4959396;28;45313;-70
2022/06/04 01:41:03;;;;;;;;;32.00;27.00;;;;;19.93;100.00;101128.81;4971373;28;45343;-70
2022/06/04 01:43:41;;;;;;;;;28.50;26.50;;;;;19.90;100.00;101121.72;4959833;28;45301;-71
2022/06/04 01:46:15;;;;;;;;;30.00;27.67;;;;;19.92;100.00;101118.97;4942005;28;46286;-70
2022/06/04 01:48:42;;;;;;;;;28.50;27.25;;;;;19.91;100.00;101115.44;4959618;28;45153;-71
2022/06/04 01:51:09;;;;;;;;;28.00;25.67;;;;;19.92;100.00;101109.19;4945777;28;45475;-71
2022/06/04 01:53:37;;;;;;;;;23.33;22.67;;;;;19.92;100.00;101114.53;4969316;28;45233;-71
2022/06/04 01:56:13;;;;;;;;;26.75;25.00;;;;;19.92;100.00;101117.22;4958945;28;46435;-71
2022/06/04 01:58:59;;;;;;;;;26.67;24.67;;;;;19.91;100.00;101117.22;4958210;28;45361;-70
2022/06/04 02:01:29;;;;;;;;;28.75;24.75;;;;;19.91;100.00;101120.78;4952443;28;45345;-71
2022/06/04 02:03:59;;;;;;;;;25.00;22.67;;;;;19.93;100.00;101126.13;4952470;28;45395;-70
2022/06/04 02:06:30;;;;;;;;;26.33;25.33;;;;;19.94;100.00;101130.56;4958797;28;46178;-70
2022/06/04 02:09:00;;;;;;;;;26.00;24.67;;;;;19.95;100.00;101126.97;4959452;28;45407;-70
2022/06/04 02:11:26;;;;;;;;;26.67;25.00;;;;;19.95;100.00;101133.22;4961107;28;45172;-71
2022/06/04 02:13:54;;;;;;;;;28.25;26.75;;;;;19.96;100.00;101132.28;4959363;28;45339;-71
2022/06/04 02:16:47;;;;;;;;;25.00;22.00;;;;;19.95;100.00;101127.84;4958974;28;45602;-70
2022/06/04 02:19:12;;;;;;;;;29.25;27.75;;;;;19.95;100.00;101135.00;4940375;28;45346;-71
2022/06/04 02:21:38;;;;;;;;;24.75;24.75;;;;;19.95;100.00;101140.38;4970732;28;45835;-70
2022/06/04 02:24:05;;;;;;;;;29.50;26.00;;;;;19.96;100.00;101152.84;4957781;28;45572;-69
2022/06/04 02:26:30;;;;;;;;;27.50;24.25;;;;;19.96;100.00;101148.38;4958701;28;46541;-70
2022/06/04 02:28:58;;;;;;;;;23.67;22.00;;;;;19.97;100.00;101144.75;4958902;28;45442;-71
2022/06/04 02:31:27;;;;;;;;;26.25;23.00;;;;;19.96;100.00;101129.59;4962156;28;45367;-70
2022/06/04 02:33:59;;;;;;;;;30.00;27.75;;;;;19.94;100.00;101107.31;4958949;28;45354;-70
2022/06/04 02:36:45;;;;;;;;;26.75;25.25;;;;;19.96;100.00;101104.59;4941081;28;45811;-70
2022/06/04 02:39:21;;;;;;;;;24.67;24.67;;;;;19.95;100.00;101110.88;4958697;28;45462;-70
2022/06/04 02:41:58;;;;;;;;;26.00;25.50;;;;;19.93;100.00;101124.34;4958774;28;45547;-70
2022/06/04 02:44:29;;;;;;;;;26.75;24.25;;;;;19.93;100.00;101118.09;4941914;28;45403;-71
2022/06/04 02:47:18;;;;;;;;;23.50;22.50;;;;;19.92;100.00;101113.63;4941199;28;46389;-70
2022/06/04 02:50:02;;;;;;;;;24.00;24.00;;;;;19.94;100.00;101117.19;4963872;28;45317;-71
2022/06/04 02:52:30;;;;;;;;;24.50;23.75;;;;;19.92;100.00;101114.53;4957439;28;45355;-71
2022/06/04 02:55:00;;;;;;;;;24.00;23.00;;;;;19.94;100.00;101093.06;4957814;28;45458;-70
2022/06/04 02:57:27;;;;;;;;;31.50;24.50;;;;;19.95;100.00;101084.09;4958512;28;45780;-70
2022/06/04 02:59:53;;;;;;;;;29.25;25.50;;;;;19.94;100.00;101088.56;4955647;28;45271;-70
2022/06/04 03:02:20;;;;;;;;;24.00;23.25;;;;;19.96;100.00;101089.41;4966246;28;45316;-70
2022/06/04 03:04:51;;;;;;;;;25.75;24.50;;;;;19.95;100.00;101074.25;4958387;28;45356;-70
2022/06/04 03:07:18;;;;;;;;;26.50;25.75;;;;;19.94;100.00;101075.16;4950949;28;45960;-70
2022/06/04 03:09:44;;;;;;;;;27.25;23.50;;;;;19.93;100.00;101065.38;4964888;28;45260;-70
2022/06/04 03:12:14;;;;;;;;;27.75;25.75;;;;;19.91;100.00;101061.81;4965215;28;45373;-71
2022/06/04 03:14:39;;;;;;;;;28.75;28.50;;;;;19.91;100.00;101072.53;4941796;28;45499;-70
2022/06/04 03:17:10;;;;;;;;;28.25;27.50;;;;;19.89;100.00;101069.91;4958080;28;45356;-70
2022/06/04 03:19:35;;;;;;;;;20.67;20.67;;;;;19.91;100.00;101071.66;4958194;28;45616;-70
2022/06/04 03:22:00;;;;;;;;;27.25;24.50;;;;;19.92;100.00;101060.03;4958087;28;45272;-70
2022/06/04 03:24:26;;;;;;;;;27.50;25.25;;;;;19.91;100.00;101061.81;4958263;28;45707;-71
2022/06/04 03:26:52;;;;;;;;;25.75;25.75;;;;;19.92;100.00;101068.06;4958052;28;45751;-70
2022/06/04 03:29:17;;;;;;;;;26.50;24.50;;;;;19.89;100.00;101088.66;4945609;28;45343;-70
2022/06/04 03:31:43;;;;;;;;;28.75;28.50;;;;;19.88;100.00;101078.00;4958030;28;45521;-70
2022/06/04 03:34:09;;;;;;;;;23.25;20.00;;;;;19.88;100.00;101065.47;4958344;28;45498;-70
2022/06/04 03:36:35;;;;;;;;;25.25;25.25;;;;;19.88;100.00;101045.84;4960766;28;45291;-71
2022/06/04 03:39:01;;;;;;;;;29.25;26.50;;;;;19.89;100.00;101058.31;4958078;28;45362;-70
2022/06/04 03:41:27;;;;;;;;;25.75;24.75;;;;;19.88;100.00;101070.84;4957860;28;45338;-70
2022/06/04 03:43:52;;;;;;;;;28.25;25.75;;;;;19.88;100.00;101073.50;4958209;28;45581;-70
2022/06/04 03:46:24;;;;;;;;;30.50;25.25;;;;;19.89;100.00;101093.16;4957785;28;46401;-70
2022/06/04 03:48:51;;;;;;;;;22.00;20.75;;;;;19.88;100.00;101102.13;4957810;28;45490;-70
2022/06/04 03:51:16;;;;;;;;;29.50;28.00;;;;;19.88;100.00;101113.72;4957879;28;45187;-71
2022/06/04 03:53:41;;;;;;;;;24.75;24.00;;;;;19.88;100.00;101103.00;4957993;28;45256;-71
2022/06/04 03:56:07;;;;;;;;;26.00;23.50;;;;;19.87;100.00;101093.19;4961335;28;46456;-70
2022/06/04 03:58:33;;;;;;;;;25.25;23.00;;;;;19.87;100.00;101092.31;4966400;28;45454;-70
2022/06/04 04:00:58;;;;;;;;;28.50;26.00;;;;;19.87;100.00;101095.00;4969636;28;59759;-70
2022/06/04 04:03:24;;;;;;;;;25.25;25.25;;;;;19.86;100.00;101090.53;4959937;28;45284;-70
2022/06/04 04:05:53;;;;;;;;;24.75;24.50;;;;;19.86;100.00;101101.25;4960864;28;45695;-71
2022/06/04 04:08:21;;;;;;;;;27.00;25.25;;;;;19.87;100.00;101095.00;4960955;28;45310;-70
2022/06/04 04:10:47;;;;;;;;;28.25;27.50;;;;;19.86;100.00;101090.53;4972193;28;45330;-71
2022/06/04 04:13:14;;;;;;;;;28.75;27.50;;;;;19.85;100.00;101092.34;4975965;28;45492;-70
2022/06/04 04:15:40;;;;;;;;;22.00;22.00;;;;;19.84;100.00;101113.81;4960683;28;45849;-71
2022/06/04 04:18:06;;;;;;;;;24.75;24.75;;;;;19.84;100.00;101140.63;4960650;28;45326;-71
2022/06/04 04:20:37;;;;;;;;;25.75;24.50;;;;;19.82;100.00;101147.81;4960935;28;47266;-71
2022/06/04 04:23:05;;;;;;;;;26.33;23.00;;;;;19.80;100.00;101145.16;4960794;28;45417;-70
2022/06/04 04:25:31;;;;;;;;;29.00;28.33;;;;;19.80;100.00;101163.03;4960637;28;45855;-71
2022/06/04 04:27:57;;;;;;;;;29.33;27.00;;;;;19.79;100.00;101174.66;4960725;28;45395;-70
2022/06/04 04:30:27;;;;;;;;;29.33;24.33;;;;;19.80;100.00;101176.44;4960548;28;45402;-70
2022/06/04 04:32:53;;;;;;;;;26.67;23.67;;;;;19.79;100.00;101172.00;4961133;28;45208;-71
2022/06/04 04:35:21;;;;;;;;;25.25;25.25;;;;;19.78;100.00;101163.06;4973049;28;45734;-70
2022/06/04 04:37:47;;;;;;;;;27.75;23.50;;;;;19.78;100.00;101168.44;4960658;28;45541;-70
2022/06/04 04:40:15;;;;;;;;;28.75;27.00;;;;;19.78;100.00;101165.75;4960458;28;45429;-71
2022/06/04 04:42:41;;;;;;;;;26.25;25.25;;;;;19.80;100.00;101173.75;4960965;28;45171;-70
2022/06/04 04:45:08;;;;;;;;;27.50;23.50;;;;;19.80;100.00;101171.94;4960388;28;45774;-70
2022/06/04 04:47:39;;;;;;;;;23.75;23.75;;;;;19.81;100.00;101175.50;4960636;28;45258;-70
2022/06/04 04:50:07;;;;;;;;;22.50;22.00;;;;;19.82;100.00;101164.78;4960521;28;45347;-70
2022/06/04 04:52:32;;;;;;;;;24.75;23.50;;;;;19.83;100.00;101163.84;4967959;28;45442;-69
2022/06/04 04:54:58;;;;;;;;;28.25;25.00;;;;;19.84;100.00;101181.69;4964852;28;52555;-70
2022/06/04 04:57:23;;;;;;;;;23.25;23.00;;;;;19.87;100.00;101195.03;4960145;28;45347;-70
2022/06/04 04:59:48;;;;;;;;;23.75;22.75;;;;;19.89;100.00;101190.50;4960063;28;45236;-70
2022/06/04 05:02:14;;;;;;;;;35.25;26.00;;;;;19.92;100.00;101202.06;4959283;28;45363;-69
2022/06/04 05:04:39;;;;;;;;;20.75;20.75;;;;;19.94;100.00;101233.31;4959894;28;45739;-71
2022/06/04 05:07:05;;;;;;;;;24.33;23.67;;;;;19.92;100.00;101219.06;4956879;28;45180;-70
2022/06/04 05:09:31;;;;;;;;;24.33;23.00;;;;;19.94;100.00;101194.91;4961197;28;50088;-70
2022/06/04 05:11:56;;;;;;;;;23.33;22.33;;;;;19.98;100.00;101177.84;4960301;28;45660;-70
2022/06/04 05:14:21;;;;;;;;;23.33;21.67;;;;;20.01;100.00;101170.59;4959757;28;45287;-71
2022/06/04 05:16:47;;;;;;;;;23.33;22.67;;;;;20.04;100.00;101175.03;4959547;28;52328;-71
2022/06/04 05:19:13;;;;;;;;;23.67;21.33;;;;;20.05;100.00;101177.66;4959800;28;45434;-70
2022/06/04 05:21:46;;;;;;;;;20.00;18.67;;;;;20.08;100.00;101165.97;4960012;28;45303;-70
2022/06/04 05:24:23;;;;;;;;;26.67;24.67;;;;;20.09;100.00;101170.44;4959943;28;46578;-70
2022/06/04 05:26:50;;;;;;;;;24.33;22.33;;;;;20.10;100.00;101166.84;4959841;28;45443;-70
2022/06/04 05:29:15;;;;;;;;;23.00;21.67;;;;;20.12;100.00;101162.31;4968915;28;45331;-70
2022/06/04 05:31:41;;;;;;;;;22.67;22.33;;;;;20.15;100.00;101152.41;4963586;28;45566;-70
2022/06/04 05:34:08;;;;;;;;;23.50;22.75;;;;;20.20;100.00;101157.66;4959717;28;46540;-71
2022/06/04 05:36:33;;;;;;;;;22.67;20.33;;;;;20.24;100.00;101147.72;4970078;28;45381;-71
2022/06/04 05:38:59;;;;;;;;;26.67;23.33;;;;;20.31;100.00;101141.31;4946601;28;45325;-70
2022/06/04 05:41:25;;;;;;;;;23.67;18.67;;;;;20.35;100.00;101133.16;4959938;28;45274;-71
2022/06/04 05:43:52;;;;;;;;;24.33;24.33;;;;;20.41;100.00;101145.53;4959383;28;46837;-71
2022/06/04 05:46:19;;;;;;;;;25.00;23.67;;;;;20.47;100.00;101150.78;4959765;28;45553;-70
2022/06/04 05:48:46;;;;;;;;;21.00;19.00;;;;;20.51;100.00;101140.88;4959471;28;45366;-70
2022/06/04 05:51:21;;;;;;;;;27.00;23.00;;;;;20.55;100.00;101134.47;4963751;28;45329;-70
2022/06/04 05:53:48;;;;;;;;;22.00;20.33;;;;;20.57;100.00;101140.72;4959194;28;45270;-70
2022/06/04 05:56:25;;;;;;;;;22.00;20.67;;;;;20.54;100.00;101147.00;4959467;28;45513;-71
2022/06/04 05:58:52;;;;;;;;;22.67;20.00;;;;;20.53;100.00;101152.44;4959725;28;45452;-70
2022/06/04 06:01:20;;;;;;;;;23.00;21.67;;;;;20.52;100.00;101172.13;4972323;28;45758;-70
2022/06/04 06:03:46;;;;;;;;;18.00;16.67;;;;;20.50;100.00;101208.81;4959879;28;45603;-70
2022/06/04 06:06:13;;;;;;;;;23.67;21.00;;;;;20.45;100.00;101250.94;4962537;28;45279;-70
2022/06/04 06:08:39;;;;;;;;;24.00;22.00;;;;;20.42;100.00;101257.28;4970398;28;45224;-70
2022/06/04 06:11:10;;;;;;;;;18.00;18.00;;;;;20.39;100.00;101260.88;4965229;28;45302;-71
2022/06/04 06:13:36;;;;;;;;;21.67;20.33;;;;;20.40;100.00;101232.28;4959108;28;46687;-70
2022/06/04 06:16:11;;;;;;;;;23.67;19.33;;;;;20.39;100.00;101226.00;4958799;28;45283;-70
2022/06/04 06:18:37;;;;;;;;;21.00;18.00;;;;;20.41;100.00;101217.97;4959633;28;45383;-71
2022/06/04 06:21:10;;;;;;;;;23.00;19.33;;;;;20.41;100.00;101213.47;4959134;28;45387;-70
2022/06/04 06:23:37;;;;;;;;;23.00;21.67;;;;;20.39;100.00;101231.38;4968587;28;45833;-70
2022/06/04 06:26:11;;;;;;;;;24.67;21.00;;;;;20.40;100.00;101251.94;4965328;28;45453;-70
2022/06/04 06:28:37;;;;;;;;;19.00;17.67;;;;;20.38;100.00;101232.31;4949009;28;45279;-71
2022/06/04 06:31:04;;;;;;;;;19.00;17.67;;;;;20.38;100.00;101239.47;4971662;28;45257;-70
2022/06/04 06:33:29;;;;;;;;;25.00;21.00;;;;;20.36;100.00;101242.19;4958946;28;45957;-71
2022/06/04 06:36:10;;;;;;;;;23.67;21.67;;;;;20.37;100.00;101251.13;4968779;28;45257;-70
2022/06/04 06:38:36;;;;;;;;;22.67;20.33;;;;;20.34;100.00;101260.09;4963741;28;45331;-70
2022/06/04 06:41:03;;;;;;;;;23.33;21.00;;;;;20.35;100.00;101256.53;4958832;28;45456;-70
2022/06/04 06:43:37;;;;;;;;;27.00;23.33;;;;;20.34;100.00;101243.13;4952963;28;46368;-70
2022/06/04 06:46:08;;;;;;;;;29.33;25.00;;;;;20.36;100.00;101257.41;4955633;28;45641;-71
2022/06/04 06:48:34;;;;;;;;;24.00;20.33;;;;;20.36;100.00;101279.75;4937841;28;45315;-71
2022/06/04 06:51:06;;;;;;;;;22.67;19.33;;;;;20.38;100.00;101274.34;4958413;28;45333;-72
2022/06/04 06:53:32;;;;;;;;;22.33;22.33;;;;;20.37;100.00;101267.22;4939057;28;46796;-72
2022/06/04 06:55:58;;;;;;;;;23.67;21.67;;;;;20.40;100.00;101261.81;4967728;28;45531;-71
2022/06/04 06:58:23;;;;;;;;;21.00;21.00;;;;;20.38;100.00;101245.72;4939614;28;45507;-72
2022/06/04 07:00:49;;;;;;;;;30.33;25.33;;;;;20.43;100.00;101240.25;4940088;28;45528;-71
2022/06/04 07:03:14;;;;;;;;;25.00;23.00;;;;;20.48;100.00;101237.50;4960855;28;47037;-72
2022/06/04 07:05:39;;;;;;;;;25.00;24.00;;;;;20.52;100.00;101233.84;4944147;28;45574;-71
2022/06/04 07:08:05;;;;;;;;;27.00;24.25;;;;;20.55;100.00;101223.88;4946509;28;45349;-72
2022/06/04 07:10:30;;;;;;;;;27.67;26.00;;;;;20.60;100.00;101221.09;4939326;28;45317;-71
2022/06/04 07:12:56;;;;;;;;;24.33;21.67;;;;;20.63;100.00;101231.78;4936788;28;45820;-71
2022/06/04 07:15:21;;;;;;;;;25.67;22.33;;;;;20.64;100.00;101221.00;4928522;28;45543;-71
2022/06/04 07:17:46;;;;;;;;;22.33;22.33;;;;;20.65;100.00;101217.38;4934341;28;58959;-71
2022/06/04 07:20:12;;;;;;;;;31.67;27.00;;;;;20.65;100.00;101227.25;4932513;28;55177;-71
2022/06/04 07:22:37;;;;;;;;;28.00;22.00;;;;;20.66;100.00;101234.38;4937453;28;45252;-72
2022/06/04 07:25:03;;;;;;;;;28.33;27.33;;;;;20.65;100.00;101227.25;4937373;28;63629;-72
2022/06/04 07:27:28;;;;;;;;;26.33;26.33;;;;;20.64;100.00;101215.63;4932614;28;45470;-72
2022/06/04 07:29:53;;;;;;;;;27.33;27.33;;;;;20.63;100.00;101203.13;4928176;28;60941;-72
2022/06/04 07:32:19;;;;;;;;;25.33;25.00;;;;;20.64;100.00;101218.31;4933942;28;64236;-72
2022/06/04 07:34:44;;;;;;;;;26.00;25.50;;;;;20.63;100.00;101235.34;4941097;28;45466;-72
2022/06/04 07:37:09;;;;;;;;;27.67;27.33;;;;;20.62;100.00;101246.13;4937536;28;60135;-71
2022/06/04 07:39:35;;;;;;;;;27.33;25.00;;;;;20.60;100.00;101239.88;4938322;28;45290;-72
2022/06/04 07:42:00;;;;;;;;;28.00;28.00;;;;;20.57;100.00;101258.75;4937829;28;46003;-71
2022/06/04 07:44:26;;;;;;;;;26.67;25.00;;;;;20.52;100.00;101274.06;4939389;28;56483;-71
2022/06/04 07:46:54;;;;;;;;;27.25;25.50;;;;;20.48;100.00;101267.00;4949204;28;45356;-71
2022/06/04 07:49:20;;;;;;;;;31.25;29.00;;;;;20.45;100.00;101272.41;4915598;28;45750;-72
2022/06/04 07:51:46;;;;;;;;;30.25;26.25;;;;;20.38;100.00;101288.63;4938281;28;46286;-71
2022/06/04 07:54:12;;;;;;;;;30.25;26.25;;;;;20.36;100.00;101284.22;4929641;28;51463;-72
2022/06/04 07:56:38;;;;;;;;;28.00;26.50;;;;;20.34;100.00;101268.16;4927949;28;45507;-74
2022/06/04 07:59:05;;;;;;;;;32.25;26.75;;;;;20.37;100.00;101262.72;4931354;28;45513;-75
2022/06/04 08:01:31;;;;;;;;;33.00;30.75;;;;;20.41;100.00;101267.13;4936312;28;45723;-76
2022/06/04 08:03:56;;;;;;;;;26.25;24.25;;;;;20.45;100.00;101265.22;4931008;28;45654;-75
2022/06/04 08:06:22;;;;;;;;;29.75;29.75;;;;;20.51;100.00;101249.06;4935696;28;45440;-73
2022/06/04 08:08:50;;;;;;;;;30.25;27.75;;;;;20.55;100.00;101233.75;4934055;28;45855;-74
2022/06/04 08:11:31;;;;;;;;;27.25;26.75;;;;;20.59;100.00;101230.06;4937118;28;47469;-72
2022/06/04 08:13:57;;;;;;;;;30.25;30.00;;;;;20.60;100.00;101234.50;4931121;28;45562;-73
2022/06/04 08:16:23;;;;;;;;;27.75;26.50;;;;;20.60;100.00;101245.25;4935841;28;45403;-74
2022/06/04 08:18:48;;;;;;;;;35.67;28.67;;;;;20.58;100.00;101225.63;4937181;28;45502;-73
2022/06/04 08:21:15;;;;;;;;;28.00;26.67;;;;;20.58;100.00;101229.19;4936002;28;45855;-74
2022/06/04 08:23:42;;;;;;;;;30.25;28.50;;;;;20.58;100.00;101231.00;4935586;28;45247;-74
2022/06/04 08:26:08;;;;;;;;;30.50;27.75;;;;;20.60;100.00;101242.56;4939446;28;45268;-74
2022/06/04 08:28:34;;;;;;;;;30.75;27.50;;;;;20.59;100.00;101249.72;4924530;28;45651;-74
2022/06/04 08:31:04;;;;;;;;;31.33;28.00;;;;;20.61;100.00;101265.78;4913177;28;46464;-74
2022/06/04 08:33:30;;;;;;;;;29.25;27.75;;;;;20.66;100.00;101264.75;4935757;28;45661;-74
2022/06/04 08:35:56;;;;;;;;;34.50;28.50;;;;;20.74;100.00;101264.59;4941092;28;45576;-74
2022/06/04 08:38:22;;;;;;;;;27.00;26.67;;;;;20.82;100.00;101259.03;4936623;28;45562;-74
2022/06/04 08:40:51;;;;;;;;;29.75;28.50;;;;;20.89;100.00;101279.44;4936472;28;46816;-74
2022/06/04 08:43:38;;;;;;;;;30.67;28.67;;;;;20.98;100.00;101275.63;4919716;28;45399;-75
2022/06/04 08:46:15;;;;;;;;;28.33;27.33;;;;;21.06;100.00;101260.22;4941732;28;45359;-74
2022/06/04 08:48:40;;;;;;;;;29.00;27.00;;;;;21.11;100.00;101263.69;4926288;28;45404;-74
2022/06/04 08:51:23;;;;;;;;;23.00;19.00;;;;;21.17;100.00;101260.84;4923803;28;45533;-74
2022/06/04 08:53:52;;;;;;;;;29.00;27.00;;;;;21.22;100.00;101266.97;4954172;28;45441;-75
2022/06/04 08:59:21;;;;;;;;;32.00;27.33;;;;;21.36;100.00;101256.78;4927087;28;45314;-75
2022/06/04 09:01:55;;;;;;;;;26.33;24.00;;;;;21.44;100.00;101254.75;4911665;28;47356;-75
2022/06/04 09:06:57;;;;;;;;;29.00;27.33;;;;;21.60;100.00;101281.22;5142960;22;67670;-75
2022/06/04 09:09:34;;;;;;;;;27.33;27.33;;;;;21.67;100.00;101280.09;5031485;28;45376;-74
2022/06/04 09:12:08;;;;;;;;;33.67;27.67;;;;;21.76;100.00;101278.97;5018659;28;46561;-74
2022/06/04 09:14:43;;;;;;;;;28.00;27.33;;;;;21.82;100.00;101281.50;5030594;28;45307;-75
2022/06/04 09:17:15;;;;;;;;;47.00;33.25;;;;;21.89;100.00;101292.03;5022060;28;45452;-76
2022/06/04 09:19:46;;;;;;;;;59.25;39.25;;;;;21.97;100.00;101294.50;5021717;28;45323;-75
2022/06/04 09:22:21;;;;;;;;;73.75;46.50;;;;;22.05;100.00;101296.94;5028979;28;47767;-74
2022/06/04 09:24:47;;;;;;;;;31.00;24.25;;;;;22.11;100.00;101288.75;5024460;28;45499;-75
2022/06/04 09:27:28;;;;;;;;;109.50;60.00;;;;;22.15;100.00;101287.72;5012106;28;45440;-75
2022/06/04 09:30:12;;;;;;;;;113.25;62.75;;;;;22.20;100.00;101285.78;5028901;28;45467;-75
2022/06/04 09:33:06;;;;;;;;;83.25;50.00;;;;;22.26;100.00;101282.03;5032846;28;47434;-76
2022/06/04 09:35:37;;;;;;;;;61.00;38.00;;;;;22.32;100.00;101277.38;5010682;28;45534;-77
2022/06/04 09:38:03;;;;;;;;;24.67;22.00;;;;;22.37;100.00;101279.88;5027371;28;45708;-75
2022/06/04 09:40:31;;;;;;;;;26.33;22.67;;;;;22.42;100.00;101270.75;5029752;28;45506;-75
2022/06/04 09:43:12;;;;;;;;;24.67;21.67;;;;;22.48;100.00;101275.97;5025168;28;47574;-76
2022/06/04 09:45:38;;;;;;;;;21.67;20.33;;;;;22.54;100.00;101268.63;5023773;28;45367;-75
2022/06/04 09:48:20;;;;;;;;;128.25;59.00;;;;;22.59;100.00;101264.84;5013008;28;45360;-76
2022/06/04 09:50:54;;;;;;;;;32.67;24.00;;;;;22.65;100.00;101261.97;5018140;28;45144;-75
2022/06/04 09:53:25;;;;;;;;;48.00;32.67;;;;;22.71;100.00;101268.97;5037546;28;46726;-76
2022/06/04 09:55:55;;;;;;;;;52.75;32.25;;;;;22.79;100.00;101269.56;5031904;28;45658;-77
2022/06/04 09:58:24;;;;;;;;;63.25;37.50;;;;;22.86;100.00;101275.66;5012896;28;45519;-75
2022/06/04 10:00:57;;;;;;;;;39.00;22.67;;;;;22.91;100.00;101276.41;5027113;28;45238;-76
2022/06/04 10:03:23;;;;;;;;;20.00;18.33;;;;;22.96;100.00;101278.03;5036401;28;46405;-76
2022/06/04 10:06:01;;;;;;;;;22.00;19.33;;;;;23.04;100.00;101280.44;5019682;28;45428;-77
2022/06/04 10:08:29;;;;;;;;;21.00;17.00;;;;;23.10;100.00;101279.38;5029663;28;45500;-84
2022/06/04 10:11:03;;;;;;;;;14.33;14.33;;;;;23.17;100.00;101276.44;5008714;28;45551;-76
2022/06/04 10:13:45;;;;;;;;;13.33;13.33;;;;;23.26;100.00;101280.59;5019590;28;46633;-76
2022/06/04 10:16:16;;;;;;;;;13.33;13.33;;;;;23.33;100.00;101282.16;5037166;28;45491;-75
2022/06/04 10:26:10;;;;;;;;;20.33;15.00;;;;;23.49;100.00;101269.91;5002367;28;45825;-75
2022/06/04 10:28:44;;;;;;;;;10.00;9.00;;;;;23.56;100.00;101269.69;5020593;28;45519;-75
2022/06/04 10:31:51;;;;;;;;;12.33;12.33;;;;;23.64;100.00;101268.50;5018252;28;45444;-75
2022/06/04 10:34:35;;;;;;;;;16.00;12.67;;;;;23.74;100.00;101263.66;5020527;28;45570;-75
2022/06/04 10:37:25;;;;;;;;;22.00;16.00;;;;;23.81;100.00;101264.28;5034657;28;47648;-75
2022/06/04 10:40:05;;;;;;;;;9.67;9.00;;;;;23.88;100.00;101258.63;5019144;28;45334;-75
2022/06/04 10:42:48;;;;;;;;;10.67;9.67;;;;;23.99;100.00;101255.53;5037659;28;45349;-74
2022/06/04 10:45:32;;;;;;;;;8.00;8.00;;;;;24.07;100.00;101250.72;5029238;28;45546;-74
2022/06/04 10:48:19;;;;;;;;;8.33;8.33;;;;;24.16;100.00;101252.19;5020025;28;45174;-75
2022/06/04 10:53:44;;;;;;;;;18.67;17.33;;;;;24.34;100.00;101250.56;5037526;28;45452;-74
2022/06/04 10:56:16;;;;;;;;;9.00;9.00;;;;;24.37;100.00;101251.38;5025411;28;45332;-75
2022/06/04 10:58:53;;;;;;;;;14.67;12.00;;;;;24.44;100.00;101249.31;5036718;28;47083;-75
2022/06/04 11:01:39;;;;;;;;;13.67;10.67;;;;;24.53;100.00;101246.25;5019564;28;45476;-75
2022/06/04 11:04:37;;;;;;;;;11.00;10.00;;;;;24.65;100.00;101248.44;5037241;28;45295;-74
2022/06/04 11:07:11;;;;;;;;;13.00;10.00;;;;;24.75;100.00;101246.25;5027345;28;45906;-75
2022/06/04 11:09:39;;;;;;;;;10.00;9.67;;;;;24.82;100.00;101248.63;5021957;28;45838;-75
2022/06/04 11:12:27;;;;;;;;;11.00;11.00;;;;;24.94;100.00;101247.25;5022493;28;45230;-75
2022/06/04 11:14:55;;;;;;;;;12.00;10.00;;;;;25.03;100.00;101254.94;5021232;28;47023;-74
2022/06/04 11:17:23;;;;;;;;;12.00;10.00;;;;;25.12;100.00;101245.59;4999830;28;45604;-75
2022/06/04 11:20:00;;;;;;;;;11.00;11.00;;;;;25.21;100.00;101238.94;5017387;28;46504;-75
2022/06/04 11:22:31;;;;;;;;;13.67;11.33;;;;;25.28;100.00;101240.41;5046605;28;45349;-75
2022/06/04 11:25:01;;;;;;;;;12.33;12.33;;;;;25.34;100.00;101232.03;5030471;28;45484;-75
2022/06/04 11:27:33;;;;;;;;;12.67;12.00;;;;;25.44;100.00;101229.81;5017364;28;45112;-74
2022/06/04 11:29:58;;;;;;;;;11.67;11.67;;;;;25.50;100.00;101233.09;5030849;28;47072;-74
2022/06/04 11:32:37;;;;;;;;;11.67;10.33;;;;;25.56;100.00;101227.41;5021659;28;60926;-74
2022/06/04 11:35:18;;;;;;;;;11.00;11.00;;;;;25.63;100.00;101225.34;5023340;28;45440;-75
2022/06/04 11:38:02;;;;;;;;;7.33;7.33;;;;;25.75;100.00;101223.94;5018555;28;45579;-74